Terminal Aerodrome Forecast
Issued by NWS Atlanta, GA

Home | Current Version | Previous Version | Text Only | Print | Product List | Glossary On
Versions: 1 2 3 4 5 6 7 8 9 10 11 12 13 14 15 16 17 18 19 20 21 22 23 24 25 26 27 28 29 30 31 32 33
853
FTAK31 PAJN 201730
TAFAHN
TAF
PAHN 201730Z 2018/2118 08008KT P6SM OVC012
     FM202100 10008KT P6SM VCSH SCT020 OVC040
     FM210000 08009KT P6SM -RA SCT015 OVC035
     FM210600 09007KT 6SM -RA BR OVC015
      AMD LTD TO CLD VIS AND WIND=

USA.gov is the U.S. government's official web portal to all federal, state and local government web resources and services.